Time;durP1;ratioP1;P1;durP2;ratioP2;P2;SDS_P1;SDS_P2;PMS_P1;PMS_P2;Temp;Humidity;BMP_temperature;BMP_pressure;BME280_temperature;BME280_humidity;BME280_pressure;Samples;Min_cycle;Max_cycle;Signal;HPM_P1;HPM_P2
2023/01/27 00:00:56;;;;;;;7.03;2.88;;;26.60;99.90;;;;;;5068744;28;20025;-64
2023/01/27 00:03:23;;;;;;;10.02;3.20;;;26.70;99.90;;;;;;5067838;28;20027;-64
2023/01/27 00:05:50;;;;;;;8.82;2.95;;;26.60;99.90;;;;;;5066005;28;20047;-66
2023/01/27 00:08:17;;;;;;;8.75;2.70;;;26.40;99.90;;;;;;5066813;28;20167;-66
2023/01/27 00:10:44;;;;;;;7.10;2.83;;;26.40;99.90;;;;;;5065106;28;20391;-67
2023/01/27 00:13:27;;;;;;;5.55;2.30;;;26.60;99.90;;;;;;5068212;28;20028;-64
2023/01/27 00:15:53;;;;;;;;;;;26.60;99.90;;;;;;5066151;28;20021;-67
2023/01/27 00:18:22;;;;;;;8.73;3.30;;;26.90;99.90;;;;;;5067477;28;19916;-68
2023/01/27 00:26:32;;;;;;;6.88;2.67;;;27.80;99.90;;;;;;5004911;28;20037;-66
2023/01/27 00:28:59;;;;;;;7.88;2.75;;;27.70;99.90;;;;;;5005149;28;20034;-67
2023/01/27 00:34:11;;;;;;;6.40;2.60;;;28.50;99.90;;;;;;4303592;28;10000588;-67
2023/01/27 00:36:40;;;;;;;6.15;2.42;;;28.60;99.90;;;;;;5003263;28;20121;-68
2023/01/27 00:39:09;;;;;;;6.68;2.95;;;28.50;99.90;;;;;;5000906;28;20033;-64
2023/01/27 00:41:36;;;;;;;5.97;2.70;;;28.70;99.90;;;;;;5003177;28;20040;-65
2023/01/27 00:44:11;;;;;;;6.25;3.00;;;28.60;99.90;;;;;;5005868;28;20034;-65
2023/01/27 00:46:39;;;;;;;8.23;2.90;;;28.40;99.90;;;;;;5006245;28;20111;-67
2023/01/27 00:49:06;;;;;;;6.95;2.60;;;28.40;99.90;;;;;;5004926;28;20025;-67
2023/01/27 00:51:33;;;;;;;9.18;3.15;;;28.20;99.90;;;;;;5005350;28;20153;-65
2023/01/27 00:54:01;;;;;;;4.93;2.45;;;28.70;99.90;;;;;;5006095;28;20064;-67
2023/01/27 00:56:29;;;;;;;5.85;3.00;;;28.90;99.90;;;;;;5005629;28;20095;-66
2023/01/27 00:58:56;;;;;;;9.75;3.15;;;28.90;99.90;;;;;;5006089;28;20041;-67
2023/01/27 01:01:23;;;;;;;7.45;2.88;;;28.80;99.90;;;;;;5003974;28;20513;-67
2023/01/27 01:03:49;;;;;;;6.35;3.70;;;28.70;99.90;;;;;;5058449;28;20048;-68
2023/01/27 01:06:18;;;;;;;8.10;3.05;;;28.40;99.90;;;;;;5065678;28;20119;-68
2023/01/27 01:08:45;;;;;;;4.68;2.67;;;28.10;99.90;;;;;;5063435;28;20037;-65
2023/01/27 01:11:14;;;;;;;6.38;2.50;;;27.80;99.90;;;;;;5067262;28;20020;-64
2023/01/27 01:13:43;;;;;;;8.02;2.22;;;27.80;99.90;;;;;;5067513;28;20051;-68
2023/01/27 01:16:21;;;;;;;5.57;2.75;;;27.80;99.90;;;;;;5066626;28;20107;-65
2023/01/27 01:18:48;;;;;;;5.05;2.42;;;27.60;99.90;;;;;;5064706;28;20035;-66
2023/01/27 01:21:15;;;;;;;5.30;2.33;;;27.50;99.90;;;;;;5067224;28;20513;-65
2023/01/27 01:23:44;;;;;;;7.03;2.70;;;27.60;99.90;;;;;;5068049;28;20028;-68
2023/01/27 01:26:13;;;;;;;4.47;2.50;;;27.70;99.90;;;;;;5067967;28;20918;-64
2023/01/27 01:28:40;;;;;;;7.38;2.85;;;28.00;99.90;;;;;;5070528;28;20079;-67
2023/01/27 01:31:11;;;;;;;6.07;2.60;;;28.00;99.90;;;;;;5067644;28;20020;-66
2023/01/27 01:33:38;;;;;;;5.63;3.03;;;28.00;99.90;;;;;;5066870;28;20023;-66
2023/01/27 01:36:07;;;;;;;5.43;2.72;;;28.10;99.90;;;;;;5066301;28;20470;-67
2023/01/27 01:38:34;;;;;;;7.18;2.95;;;28.20;99.90;;;;;;5068022;28;20155;-68
2023/01/27 01:41:01;;;;;;;7.47;2.67;;;28.40;99.90;;;;;;5067813;28;20020;-65
2023/01/27 01:43:28;;;;;;;6.10;3.10;;;28.90;99.90;;;;;;5061256;28;20028;-70
2023/01/27 01:45:57;;;;;;;7.00;2.90;;;29.10;99.90;;;;;;5056768;28;20036;-69
2023/01/27 01:48:41;;;;;;;5.28;3.40;;;29.30;99.90;;;;;;5064586;28;20035;-69
2023/01/27 01:51:20;;;;;;;6.22;2.58;;;29.50;99.90;;;;;;5055294;28;20540;-65
2023/01/27 01:54:11;;;;;;;6.32;2.15;;;29.50;99.90;;;;;;5063028;28;20025;-68
2023/01/27 01:56:55;;;;;;;3.70;2.33;;;29.60;99.90;;;;;;5063292;28;20017;-64
2023/01/27 01:59:48;;;;;;;6.32;2.92;;;29.30;99.90;;;;;;5065445;28;20033;-65
2023/01/27 02:02:20;;;;;;;4.70;2.22;;;29.40;99.90;;;;;;5066365;28;20564;-64
2023/01/27 02:05:24;;;;;;;6.72;2.25;;;29.20;99.90;;;;;;5059241;28;20016;-68
2023/01/27 02:07:57;;;;;;;4.72;2.50;;;28.90;99.90;;;;;;5062778;28;20020;-68
2023/01/27 02:10:24;;;;;;;5.90;2.40;;;28.60;99.90;;;;;;5066588;28;20401;-66
2023/01/27 02:12:51;;;;;;;5.90;2.25;;;28.50;99.90;;;;;;5065415;28;20526;-68
2023/01/27 02:15:20;;;;;;;4.85;2.45;;;28.30;99.90;;;;;;5065969;28;20029;-68
2023/01/27 02:17:48;;;;;;;6.63;2.83;;;28.30;99.90;;;;;;5066240;28;20107;-64
2023/01/27 02:20:30;;;;;;;7.05;2.50;;;28.50;99.90;;;;;;5065409;28;20039;-65
2023/01/27 02:22:56;;;;;;;;;;;28.80;99.90;;;;;;5065819;28;20492;-64
2023/01/27 02:25:35;;;;;;;5.72;2.00;;;28.90;99.90;;;;;;5063322;28;20335;-67
2023/01/27 02:28:04;;;;;;;5.88;2.22;;;28.90;99.90;;;;;;5066084;28;20058;-66
2023/01/27 02:30:31;;;;;;;4.20;2.05;;;29.10;99.90;;;;;;5065994;28;20028;-64
2023/01/27 02:32:58;;;;;;;4.53;2.47;;;29.10;99.90;;;;;;5065777;28;20127;-65
2023/01/27 02:35:41;;;;;;;3.28;1.90;;;29.10;99.90;;;;;;5064070;28;20485;-67
2023/01/27 02:38:10;;;;;;;7.47;2.30;;;29.10;99.90;;;;;;5064753;28;20070;-68
2023/01/27 02:40:38;;;;;;;5.88;2.40;;;29.10;99.90;;;;;;5065330;28;20791;-67
2023/01/27 02:43:05;;;;;;;5.70;2.38;;;29.00;99.90;;;;;;5065169;28;20447;-65
2023/01/27 02:45:32;;;;;;;6.45;2.97;;;29.00;99.90;;;;;;5063719;28;20052;-71
2023/01/27 02:47:59;;;;;;;3.50;2.08;;;29.00;99.90;;;;;;5066107;28;20028;-64
2023/01/27 02:50:26;;;;;;;5.55;2.45;;;29.00;99.90;;;;;;5064363;28;20023;-65
2023/01/27 02:52:53;;;;;;;5.78;2.22;;;29.10;99.90;;;;;;5064676;28;20265;-66
2023/01/27 02:55:20;;;;;;;5.45;2.10;;;29.10;99.90;;;;;;5063987;28;20120;-65
2023/01/27 02:57:47;;;;;;;4.22;2.20;;;29.20;99.90;;;;;;5065101;28;20499;-66
2023/01/27 03:00:14;;;;;;;6.22;2.70;;;29.50;99.90;;;;;;5063766;28;20070;-68
2023/01/27 03:02:41;;;;;;;5.80;2.83;;;30.00;99.90;;;;;;5062521;28;20033;-64
2023/01/27 03:05:08;;;;;;;5.03;2.55;;;30.40;99.90;;;;;;5058390;28;20366;-69
2023/01/27 03:07:35;;;;;;;4.53;2.85;;;31.60;99.90;;;;;;5059622;28;20392;-64
2023/01/27 03:10:02;;;;;;;6.50;3.25;;;32.00;99.90;;;;;;5055772;28;20031;-64
2023/01/27 03:12:29;;;;;;;7.57;2.65;;;32.80;99.90;;;;;;5065168;28;20401;-68
2023/01/27 03:20:26;;;;;;;5.22;2.60;;;34.30;99.40;;;;;;5057113;28;20043;-61
2023/01/27 03:22:53;;;;;;;6.00;2.45;;;34.90;98.80;;;;;;5064733;28;20058;-66
2023/01/27 03:25:20;;;;;;;4.32;2.47;;;35.10;98.60;;;;;;5070698;28;20346;-63
2023/01/27 03:27:46;;;;;;;4.47;2.25;;;34.90;97.00;;;;;;5064330;28;20107;-63
2023/01/27 03:30:14;;;;;;;6.30;2.30;;;34.30;97.90;;;;;;5065429;28;20069;-63
2023/01/27 03:32:47;;;;;;;5.63;2.63;;;33.70;98.00;;;;;;5065531;28;20543;-63
2023/01/27 03:35:15;;;;;;;4.15;2.22;;;33.80;99.10;;;;;;5064968;28;20052;-63
2023/01/27 03:46:18;;;;;;;5.25;2.40;;;34.30;97.70;;;;;;5060786;28;20035;-61
2023/01/27 03:48:51;;;;;;;5.43;2.50;;;34.80;98.70;;;;;;5058164;28;20087;-63
2023/01/27 03:51:21;;;;;;;7.07;2.97;;;34.70;97.10;;;;;;5060331;28;20025;-63
2023/01/27 03:53:48;;;;;;;4.85;2.30;;;34.60;96.90;;;;;;5069264;28;20024;-64
2023/01/27 03:56:16;;;;;;;4.60;2.42;;;34.20;95.90;;;;;;5065179;28;20179;-63
2023/01/27 03:58:44;;;;;;;8.18;2.88;;;33.50;97.00;;;;;;5063401;28;20111;-63
2023/01/27 04:01:19;;;;;;;6.10;3.00;;;33.40;98.10;;;;;;5063903;28;20435;-67
2023/01/27 04:06:54;;;;;;;4.25;2.70;;;34.50;98.20;;;;;;5061401;28;20036;-67
2023/01/27 04:09:30;;;;;;;5.47;3.03;;;34.20;96.90;;;;;;5064597;28;20028;-64
2023/01/27 04:11:59;;;;;;;6.00;2.50;;;34.30;97.50;;;;;;5058900;28;20032;-61
2023/01/27 04:14:37;;;;;;;5.38;2.67;;;34.80;95.80;;;;;;5054663;28;20529;-60
2023/01/27 04:17:11;;;;;;;5.05;3.42;;;35.40;96.10;;;;;;5063439;28;20028;-62
2023/01/27 04:19:39;;;;;;;5.28;2.30;;;35.60;94.70;;;;;;5064242;28;20070;-62
2023/01/27 04:22:07;;;;;;;6.57;2.80;;;35.10;95.80;;;;;;5065603;28;20048;-61
2023/01/27 04:24:34;;;;;;;8.82;3.25;;;35.10;96.10;;;;;;5063846;28;20025;-63
2023/01/27 04:27:07;;;;;;;3.92;2.30;;;34.80;95.70;;;;;;5064490;28;20126;-60
2023/01/27 04:29:36;;;;;;;6.32;2.42;;;34.70;95.70;;;;;;5060494;28;20033;-61
2023/01/27 04:32:07;;;;;;;7.45;3.22;;;34.90;95.00;;;;;;5060239;28;20036;-63
2023/01/27 04:34:34;;;;;;;4.82;2.85;;;35.40;96.10;;;;;;5060427;28;20059;-64
2023/01/27 04:37:05;;;;;;;5.85;2.75;;;36.30;93.80;;;;;;5062790;28;20021;-60
2023/01/27 04:39:33;;;;;;;6.15;2.58;;;35.90;95.10;;;;;;5064001;28;20031;-65
2023/01/27 04:42:00;;;;;;;5.53;2.50;;;35.20;95.20;;;;;;5057148;28;20527;-60
2023/01/27 04:44:27;;;;;;;4.53;2.42;;;33.90;96.20;;;;;;5059240;28;20036;-65
2023/01/27 04:46:54;;;;;;;6.82;2.72;;;33.20;97.40;;;;;;5056417;28;20029;-64
2023/01/27 04:49:21;;;;;;;6.72;2.47;;;32.90;97.50;;;;;;5065922;28;20143;-60
2023/01/27 04:51:48;;;;;;;5.00;2.38;;;32.40;98.60;;;;;;5060849;28;20028;-60
2023/01/27 04:54:15;;;;;;;3.67;2.40;;;31.90;98.50;;;;;;5064260;28;20485;-60
2023/01/27 04:56:57;;;;;;;6.93;2.60;;;31.50;99.20;;;;;;5065298;28;20388;-62
2023/01/27 04:59:24;;;;;;;5.93;3.13;;;31.30;99.50;;;;;;5052459;28;20499;-62
2023/01/27 05:01:51;;;;;;;8.18;2.47;;;31.50;99.30;;;;;;5059522;28;20744;-62
2023/01/27 05:04:18;;;;;;;6.80;2.35;;;31.70;98.80;;;;;;5060743;28;20047;-63
2023/01/27 05:06:44;;;;;;;5.50;2.53;;;31.80;99.30;;;;;;5055798;28;20445;-62
2023/01/27 05:09:11;;;;;;;7.00;2.58;;;31.60;99.90;;;;;;5051745;28;20090;-65
2023/01/27 05:11:38;;;;;;;6.00;2.63;;;31.70;99.80;;;;;;5062880;28;20028;-63
2023/01/27 05:14:05;;;;;;;6.40;2.50;;;31.70;99.10;;;;;;5057532;28;20369;-63
2023/01/27 05:16:32;;;;;;;6.25;2.90;;;31.50;99.30;;;;;;5065221;28;20099;-63
2023/01/27 05:19:00;;;;;;;6.78;3.05;;;31.00;99.60;;;;;;5066172;28;20480;-64
2023/01/27 05:21:27;;;;;;;5.15;2.10;;;30.90;99.90;;;;;;5061948;28;20574;-64
2023/01/27 05:23:54;;;;;;;4.05;2.30;;;30.90;99.90;;;;;;5065279;28;20051;-64
2023/01/27 05:26:23;;;;;;;9.93;2.92;;;30.90;99.90;;;;;;5062518;28;20028;-64
2023/01/27 05:28:52;;;;;;;5.15;2.42;;;31.10;99.90;;;;;;5061725;28;20025;-63
2023/01/27 05:31:22;;;;;;;7.13;2.42;;;31.20;99.90;;;;;;5059399;28;20037;-62
2023/01/27 05:33:51;;;;;;;5.53;2.75;;;31.00;99.90;;;;;;5063444;28;20067;-63
2023/01/27 05:36:20;;;;;;;6.88;2.38;;;31.00;99.90;;;;;;5062143;28;20394;-65
2023/01/27 05:38:47;;;;;;;5.82;2.00;;;31.00;99.90;;;;;;5061117;28;20115;-64
2023/01/27 05:41:16;;;;;;;3.70;2.03;;;31.20;99.90;;;;;;5056655;28;20922;-65
2023/01/27 05:43:45;;;;;;;6.70;2.03;;;30.90;99.90;;;;;;5064645;28;20112;-63
2023/01/27 05:46:14;;;;;;;6.43;2.05;;;30.60;99.90;;;;;;5061812;28;20028;-66
2023/01/27 05:48:47;;;;;;;5.97;2.35;;;30.20;99.90;;;;;;5062592;28;20036;-63
2023/01/27 05:51:15;;;;;;;6.07;2.15;;;30.00;99.90;;;;;;5064218;28;20024;-65
2023/01/27 05:53:43;;;;;;;4.95;2.30;;;29.90;99.90;;;;;;5062530;28;21100;-62
2023/01/27 05:56:12;;;;;;;5.47;2.75;;;29.70;99.90;;;;;;5060449;28;20029;-65
2023/01/27 05:58:39;;;;;;;7.05;2.50;;;29.90;99.90;;;;;;5063416;28;20023;-63
2023/01/27 06:01:12;;;;;;;6.10;1.95;;;29.80;99.90;;;;;;5060246;28;20024;-63
2023/01/27 06:03:40;;;;;;;5.05;2.20;;;29.50;99.90;;;;;;5061200;28;20020;-65
2023/01/27 06:06:08;;;;;;;5.72;2.00;;;29.50;99.90;;;;;;5062349;28;20024;-63
2023/01/27 06:08:36;;;;;;;6.85;2.33;;;29.50;99.90;;;;;;5061446;28;20094;-65
2023/01/27 06:11:04;;;;;;;3.80;2.00;;;29.50;99.90;;;;;;5056714;28;20117;-64
2023/01/27 06:13:34;;;;;;;5.78;2.75;;;29.40;99.90;;;;;;5061590;28;20036;-62
2023/01/27 06:16:05;;;;;;;8.13;2.60;;;29.30;99.90;;;;;;5061413;28;20075;-64
2023/01/27 06:18:33;;;;;;;4.50;2.00;;;29.10;99.90;;;;;;5063605;28;20443;-62
2023/01/27 06:21:05;;;;;;;5.65;2.20;;;28.90;99.90;;;;;;5056786;28;20052;-63
2023/01/27 06:23:32;;;;;;;;;;;28.90;99.90;;;;;;5063563;28;20060;-66
2023/01/27 06:26:06;;;;;;;7.90;2.55;;;28.90;99.90;;;;;;5064622;28;19912;-63
2023/01/27 06:28:35;;;;;;;11.88;2.45;;;28.70;99.90;;;;;;5062055;28;20042;-63
2023/01/27 06:31:09;;;;;;;6.55;2.22;;;28.40;99.90;;;;;;5063931;28;20020;-63
2023/01/27 06:33:37;;;;;;;6.22;2.00;;;28.40;99.90;;;;;;5061619;28;20136;-65
2023/01/27 06:36:07;;;;;;;8.65;2.63;;;28.20;99.90;;;;;;5053513;28;20065;-62
2023/01/27 06:38:38;;;;;;;5.85;2.08;;;28.20;99.90;;;;;;5060571;28;20021;-62
2023/01/27 06:41:05;;;;;;;6.75;2.47;;;28.10;99.90;;;;;;5063063;28;20029;-64
2023/01/27 06:43:32;;;;;;;6.90;2.53;;;28.20;99.90;;;;;;5059854;28;20413;-65
2023/01/27 06:45:59;;;;;;;4.88;2.30;;;28.40;99.90;;;;;;5055904;28;20032;-66
2023/01/27 06:48:27;;;;;;;8.18;2.42;;;28.90;99.90;;;;;;5058148;28;20571;-62
2023/01/27 06:50:55;;;;;;;5.95;1.95;;;29.20;99.90;;;;;;5056275;28;20039;-61
2023/01/27 06:53:23;;;;;;;9.05;2.42;;;29.10;99.90;;;;;;5054506;28;20469;-62
2023/01/27 06:55:55;;;;;;;5.82;2.63;;;29.30;99.90;;;;;;5055896;28;20059;-63
2023/01/27 06:58:22;;;;;;;4.78;2.53;;;29.80;99.90;;;;;;5062876;28;20488;-61
2023/01/27 07:00:49;;;;;;;6.60;2.20;;;30.20;99.90;;;;;;5061753;28;20321;-62
2023/01/27 07:03:16;;;;;;;7.30;2.55;;;30.00;99.90;;;;;;5062391;28;20029;-62
2023/01/27 07:05:44;;;;;;;5.85;2.28;;;30.30;99.90;;;;;;5056730;28;20283;-62
2023/01/27 07:08:11;;;;;;;7.68;2.58;;;31.00;99.90;;;;;;5059686;28;20087;-62
2023/01/27 07:10:38;;;;;;;9.40;2.47;;;31.10;99.90;;;;;;5058007;28;20081;-61
2023/01/27 07:13:10;;;;;;;7.85;2.53;;;30.90;99.90;;;;;;5059116;28;20024;-62
2023/01/27 07:15:38;;;;;;;6.28;2.30;;;30.10;99.90;;;;;;5058208;28;20050;-61
2023/01/27 07:18:05;;;;;;;7.05;2.30;;;29.20;99.90;;;;;;5058670;28;20073;-60
2023/01/27 07:20:32;;;;;;;7.35;2.50;;;28.70;99.90;;;;;;5059566;28;20097;-61
2023/01/27 07:23:00;;;;;;;6.10;2.65;;;28.40;99.90;;;;;;5059134;28;20087;-62
2023/01/27 07:25:29;;;;;;;8.18;2.70;;;27.80;99.90;;;;;;5058312;28;21215;-62
2023/01/27 07:28:02;;;;;;;10.55;2.72;;;27.30;99.90;;;;;;5059291;28;20043;-63
2023/01/27 07:30:30;;;;;;;7.80;3.22;;;27.30;99.90;;;;;;5058808;28;20442;-63
2023/01/27 07:33:08;;;;;;;7.82;3.08;;;27.10;99.90;;;;;;5057437;28;20115;-62
2023/01/27 07:35:37;;;;;;;7.82;2.70;;;27.10;99.90;;;;;;5058031;28;20032;-64
2023/01/27 07:38:04;;;;;;;6.18;2.63;;;26.90;99.90;;;;;;5058250;28;20036;-61
2023/01/27 07:40:31;;;;;;;11.77;3.03;;;26.80;99.90;;;;;;5057722;28;20028;-62
2023/01/27 07:42:59;;;;;;;9.02;3.33;;;26.70;99.90;;;;;;5058016;28;20031;-61
2023/01/27 07:45:27;;;;;;;8.48;2.17;;;26.50;99.90;;;;;;5059649;28;20032;-65
2023/01/27 07:48:03;;;;;;;6.22;2.17;;;26.30;99.90;;;;;;5055406;28;20131;-62
2023/01/27 07:50:30;;;;;;;6.13;2.63;;;26.20;99.90;;;;;;5056451;28;20044;-65
2023/01/27 07:53:01;;;;;;;8.32;2.63;;;26.10;99.90;;;;;;5060226;28;20012;-63
2023/01/27 07:55:29;;;;;;;8.13;2.97;;;26.00;99.90;;;;;;5058812;28;20028;-63
2023/01/27 07:57:57;;;;;;;6.97;2.75;;;25.90;99.90;;;;;;5059645;28;20033;-65
2023/01/27 08:00:24;;;;;;;6.78;2.80;;;25.90;99.90;;;;;;5056942;28;20491;-65
2023/01/27 08:02:55;;;;;;;9.43;3.72;;;25.80;99.90;;;;;;5057633;28;20033;-70
2023/01/27 08:05:22;;;;;;;12.02;3.58;;;25.80;99.90;;;;;;5055283;28;20033;-68
2023/01/27 08:07:50;;;;;;;10.75;3.17;;;25.60;99.90;;;;;;5057149;28;20090;-61
2023/01/27 08:10:18;;;;;;;7.25;2.90;;;25.60;99.90;;;;;;5066835;28;20024;-61
2023/01/27 08:12:45;;;;;;;13.10;3.50;;;25.60;99.90;;;;;;5060544;28;20025;-60
2023/01/27 08:15:13;;;;;;;8.18;3.08;;;25.60;99.90;;;;;;5059513;28;20063;-62
2023/01/27 08:17:39;;;;;;;10.20;2.95;;;25.60;99.90;;;;;;5060641;28;20036;-63
2023/01/27 08:20:07;;;;;;;8.82;3.08;;;25.50;99.90;;;;;;5061071;28;20021;-60
2023/01/27 08:22:34;;;;;;;8.50;3.03;;;25.50;99.90;;;;;;5061241;28;20084;-62
2023/01/27 08:25:01;;;;;;;13.77;3.80;;;25.50;99.90;;;;;;5060874;28;20317;-62
2023/01/27 08:27:28;;;;;;;7.95;3.60;;;25.30;99.90;;;;;;5060462;28;20037;-60
2023/01/27 08:29:55;;;;;;;5.97;2.80;;;25.20;99.90;;;;;;5056942;28;20025;-60
2023/01/27 08:32:22;;;;;;;10.43;3.80;;;25.20;99.90;;;;;;5062107;28;20025;-59
2023/01/27 08:34:49;;;;;;;7.90;3.20;;;25.10;99.90;;;;;;5054734;28;20646;-62
2023/01/27 08:37:16;;;;;;;8.98;3.20;;;25.10;99.90;;;;;;5059452;28;20372;-60
2023/01/27 08:39:43;;;;;;;10.40;3.17;;;25.00;99.90;;;;;;5061141;28;20116;-62
2023/01/27 08:42:09;;;;;;;7.72;3.35;;;25.00;99.90;;;;;;5063599;28;20080;-63
2023/01/27 08:44:36;;;;;;;10.63;3.70;;;25.00;99.90;;;;;;5054787;28;20029;-61
2023/01/27 08:47:03;;;;;;;10.10;3.67;;;25.00;99.90;;;;;;5057399;28;20256;-60
2023/01/27 08:49:30;;;;;;;10.48;3.30;;;24.90;99.90;;;;;;5052704;28;20029;-60
2023/01/27 08:51:57;;;;;;;11.52;3.15;;;24.90;99.90;;;;;;5056952;28;20127;-63
2023/01/27 08:54:24;;;;;;;6.85;2.92;;;24.90;99.90;;;;;;5058462;28;20104;-61
2023/01/27 08:56:51;;;;;;;6.63;2.97;;;24.80;99.90;;;;;;5058993;28;20027;-61
2023/01/27 08:59:18;;;;;;;9.27;3.78;;;24.80;99.90;;;;;;5060238;28;20269;-64
2023/01/27 09:01:45;;;;;;;9.90;3.30;;;24.80;99.90;;;;;;5052273;28;20115;-64
2023/01/27 09:04:12;;;;;;;8.73;3.22;;;24.80;99.90;;;;;;5062797;28;20032;-68
2023/01/27 09:06:39;;;;;;;10.20;3.40;;;24.80;99.90;;;;;;5061976;28;20626;-62
2023/01/27 09:09:09;;;;;;;9.48;3.42;;;24.70;99.90;;;;;;5063263;28;20056;-65
2023/01/27 09:11:37;;;;;;;11.65;4.43;;;24.60;99.90;;;;;;5062458;28;20396;-62
2023/01/27 09:14:04;;;;;;;11.93;4.20;;;24.60;99.90;;;;;;5065313;28;20043;-65
2023/01/27 09:16:32;;;;;;;11.68;3.45;;;24.60;99.90;;;;;;5064115;28;20035;-62
2023/01/27 09:18:58;;;;;;;8.90;3.13;;;24.60;99.90;;;;;;5056621;28;20336;-63
2023/01/27 09:21:26;;;;;;;4.82;3.08;;;24.60;99.90;;;;;;5062356;28;20102;-64
2023/01/27 09:23:53;;;;;;;7.72;3.33;;;24.60;99.90;;;;;;5064458;28;20060;-61
2023/01/27 09:26:20;;;;;;;6.25;2.90;;;24.60;99.90;;;;;;5064043;28;20640;-64
2023/01/27 09:28:47;;;;;;;7.72;2.72;;;24.70;99.90;;;;;;5063478;28;20036;-64
2023/01/27 09:31:13;;;;;;;11.30;3.70;;;24.60;99.90;;;;;;5063814;28;20081;-66
2023/01/27 09:33:40;;;;;;;7.97;3.17;;;24.60;99.90;;;;;;5063193;28;20035;-66
2023/01/27 09:36:20;;;;;;;8.00;3.38;;;24.60;99.90;;;;;;5062914;28;20053;-63
2023/01/27 09:39:07;;;;;;;9.93;3.33;;;24.60;99.90;;;;;;5061662;28;20043;-62
2023/01/27 09:41:53;;;;;;;10.50;3.72;;;24.60;99.90;;;;;;5063031;28;20546;-65
2023/01/27 09:44:42;;;;;;;8.30;3.25;;;24.60;99.90;;;;;;5063939;28;20028;-65
2023/01/27 09:47:22;;;;;;;8.95;3.75;;;24.40;99.90;;;;;;5061339;28;20094;-61
2023/01/27 09:50:18;;;;;;;6.65;3.13;;;24.40;99.90;;;;;;5064676;28;20028;-66
2023/01/27 09:52:57;;;;;;;9.57;3.25;;;24.40;99.90;;;;;;5063083;28;20582;-63
2023/01/27 09:55:42;;;;;;;10.55;3.08;;;24.40;99.90;;;;;;5061863;28;20017;-65
2023/01/27 09:58:32;;;;;;;12.50;3.10;;;24.50;99.90;;;;;;4709301;28;10000465;-65
2023/01/27 10:01:06;;;;;;;8.55;3.25;;;24.50;99.90;;;;;;5060274;28;20370;-63
2023/01/27 10:03:55;;;;;;;7.43;3.00;;;24.40;99.90;;;;;;5062129;28;20066;-67
2023/01/27 10:06:34;;;;;;;11.68;2.97;;;24.40;99.90;;;;;;5055959;28;20310;-62
2023/01/27 10:09:16;;;;;;;13.82;4.07;;;24.30;99.90;;;;;;5060010;28;20028;-64
2023/01/27 10:12:04;;;;;;;7.03;3.38;;;24.20;99.90;;;;;;5059201;28;20058;-62
2023/01/27 10:14:55;;;;;;;8.40;3.28;;;24.30;99.90;;;;;;5060536;28;20516;-62
2023/01/27 10:17:49;;;;;;;10.98;3.60;;;24.30;99.90;;;;;;5057919;28;20351;-64
2023/01/27 10:20:46;;;;;;;8.20;2.90;;;24.30;99.90;;;;;;4902577;22;10002556;-61
2023/01/27 10:23:54;;;;;;;10.40;2.90;;;24.20;99.90;;;;;;5036014;28;20243;-64
2023/01/27 10:26:39;;;;;;;7.05;2.50;;;24.20;99.90;;;;;;4958398;28;20125;-65
2023/01/27 10:29:12;;;;;;;10.70;3.25;;;24.30;99.90;;;;;;4958463;28;20591;-66
2023/01/27 10:31:56;;;;;;;7.45;2.63;;;24.30;99.90;;;;;;4961769;28;20138;-65
2023/01/27 10:34:34;;;;;;;11.05;3.38;;;24.30;99.90;;;;;;4962362;28;20037;-65
2023/01/27 10:37:33;;;;;;;9.23;3.50;;;24.10;99.90;;;;;;4960951;28;20039;-61
2023/01/27 10:40:03;;;;;;;9.15;3.20;;;24.00;99.90;;;;;;4959278;28;20038;-66
2023/01/27 10:42:47;;;;;;;;;;;23.90;99.90;;;;;;4957761;28;20054;-67
2023/01/27 10:45:26;;;;;;;8.77;2.97;;;23.90;99.90;;;;;;4959526;28;19914;-63
2023/01/27 10:48:02;;;;;;;10.07;3.15;;;23.80;99.90;;;;;;4963269;28;20122;-63
2023/01/27 10:50:35;;;;;;;11.05;3.10;;;23.80;99.90;;;;;;4957535;28;20472;-65
2023/01/27 10:53:15;;;;;;;8.85;2.78;;;23.80;99.90;;;;;;4960518;28;20042;-63
2023/01/27 10:56:11;;;;;;;7.03;3.72;;;23.80;99.90;;;;;;4956909;28;20042;-70
2023/01/27 10:58:47;;;;;;;7.25;3.30;;;23.80;99.90;;;;;;4919395;29;20122;-61
2023/01/27 11:01:18;;;;;;;6.65;3.17;;;23.60;99.90;;;;;;4922144;29;20044;-71
2023/01/27 11:04:03;;;;;;;8.75;3.10;;;23.60;99.90;;;;;;4954668;28;20402;-67
2023/01/27 11:06:38;;;;;;;11.10;3.47;;;23.60;99.90;;;;;;4961669;28;20562;-70
2023/01/27 11:09:17;;;;;;;7.88;3.38;;;23.50;99.90;;;;;;4960592;28;20038;-61
2023/01/27 11:11:45;;;;;;;7.82;3.47;;;23.50;99.90;;;;;;4961191;28;20035;-62
2023/01/27 11:14:16;;;;;;;6.40;3.38;;;23.50;99.90;;;;;;4960866;28;20074;-61
2023/01/27 11:16:48;;;;;;;11.23;4.05;;;23.40;99.90;;;;;;4958998;28;20074;-62
2023/01/27 11:19:28;;;;;;;12.90;4.45;;;23.20;99.90;;;;;;4962097;28;20053;-62
2023/01/27 11:21:56;;;;;;;9.93;4.20;;;23.10;99.90;;;;;;4960714;28;20080;-65
2023/01/27 11:24:46;;;;;;;10.60;4.13;;;23.10;99.90;;;;;;4961594;28;20689;-67
2023/01/27 11:27:26;;;;;;;6.43;3.55;;;23.10;99.90;;;;;;4957655;28;20538;-61
2023/01/27 11:30:06;;;;;;;8.93;4.68;;;23.10;99.90;;;;;;4961230;28;20202;-66
2023/01/27 11:33:11;;;;;;;9.75;4.80;;;23.20;99.90;;;;;;4961401;28;20062;-62
2023/01/27 11:35:38;;;;;;;10.50;3.92;;;23.30;99.90;;;;;;4908817;29;20387;-60
2023/01/27 11:38:08;;;;;;;8.80;4.00;;;23.30;99.90;;;;;;4925068;29;20043;-65
2023/01/27 11:40:37;;;;;;;12.13;3.90;;;23.20;99.90;;;;;;4927879;29;20046;-61
2023/01/27 11:43:07;;;;;;;8.05;3.58;;;23.20;99.90;;;;;;4929730;29;20042;-64
2023/01/27 11:45:36;;;;;;;8.82;3.78;;;23.20;99.90;;;;;;4932216;29;20046;-62
2023/01/27 11:48:11;;;;;;;7.40;3.28;;;23.20;99.90;;;;;;4928848;29;20087;-62
2023/01/27 11:50:39;;;;;;;11.25;3.88;;;23.10;99.90;;;;;;4925650;29;20031;-66
2023/01/27 11:53:15;;;;;;;7.20;4.05;;;23.10;99.90;;;;;;4932876;29;20031;-64
2023/01/27 11:55:49;;;;;;;10.95;3.67;;;23.10;99.90;;;;;;4926033;29;20114;-65
2023/01/27 11:58:33;;;;;;;7.95;3.22;;;23.10;99.90;;;;;;4927820;29;20110;-66
2023/01/27 12:01:18;;;;;;;9.43;3.85;;;23.10;99.90;;;;;;4923685;29;20042;-63
2023/01/27 12:03:56;;;;;;;7.70;3.60;;;23.10;99.90;;;;;;4933089;29;20046;-62
2023/01/27 12:06:45;;;;;;;8.70;3.47;;;23.10;99.90;;;;;;4928898;29;20096;-66
2023/01/27 12:09:40;;;;;;;8.95;3.72;;;23.10;99.90;;;;;;4930791;29;20086;-64
2023/01/27 12:12:13;;;;;;;9.13;3.75;;;23.10;99.90;;;;;;5029455;28;20048;-68
2023/01/27 12:14:58;;;;;;;9.25;4.22;;;23.00;99.90;;;;;;5042124;28;20500;-62
2023/01/27 12:17:43;;;;;;;8.52;3.45;;;23.00;99.90;;;;;;5042148;28;20110;-63
2023/01/27 12:20:19;;;;;;;12.50;3.65;;;22.90;99.90;;;;;;5041437;28;20033;-62
2023/01/27 12:22:49;;;;;;;9.07;4.07;;;22.90;99.90;;;;;;5035380;28;20061;-66
2023/01/27 12:25:23;;;;;;;9.63;3.92;;;22.90;99.90;;;;;;5041925;28;20025;-64
2023/01/27 12:28:48;;;;;;;6.97;3.35;;;22.90;99.90;;;;;;5042108;28;20052;-63
2023/01/27 12:31:30;;;;;;;10.70;4.00;;;23.00;99.90;;;;;;5007936;28;20108;-62
2023/01/27 12:34:06;;;;;;;8.80;3.20;;;23.00;99.90;;;;;;5000856;28;20434;-65
2023/01/27 12:36:42;;;;;;;10.82;3.28;;;23.00;99.90;;;;;;4999081;28;20068;-61
2023/01/27 12:39:40;;;;;;;9.02;3.50;;;22.90;99.90;;;;;;4999810;28;20640;-63
2023/01/27 12:42:36;;;;;;;7.20;4.03;;;23.00;99.90;;;;;;5002007;28;20388;-63
2023/01/27 12:45:20;;;;;;;8.25;3.90;;;23.00;99.90;;;;;;5001037;28;20116;-65
2023/01/27 12:48:09;;;;;;;9.50;4.15;;;22.90;99.90;;;;;;5002482;28;20061;-66
2023/01/27 12:50:39;;;;;;;7.82;3.10;;;22.90;99.90;;;;;;4999535;28;20621;-66
2023/01/27 12:53:13;;;;;;;7.75;3.58;;;23.00;99.90;;;;;;5002082;28;20104;-63
2023/01/27 12:55:51;;;;;;;7.20;3.20;;;23.00;99.90;;;;;;5000803;28;20062;-68
2023/01/27 12:58:30;;;;;;;8.80;3.35;;;23.00;99.90;;;;;;5002826;28;20049;-67
2023/01/27 13:01:00;;;;;;;10.65;3.30;;;23.10;99.90;;;;;;5005105;28;20039;-63
2023/01/27 13:03:27;;;;;;;7.63;3.50;;;23.10;99.90;;;;;;5004600;28;20037;-68
2023/01/27 13:05:57;;;;;;;7.50;2.92;;;23.00;99.90;;;;;;5038892;28;20417;-64
2023/01/27 13:08:27;;;;;;;9.40;3.92;;;23.00;99.90;;;;;;5050954;28;20033;-63
2023/01/27 13:11:03;;;;;;;9.43;3.28;;;22.90;99.90;;;;;;5046469;28;20420;-63
2023/01/27 13:13:31;;;;;;;10.82;3.60;;;22.90;99.90;;;;;;5043037;28;20021;-63
2023/01/27 13:16:13;;;;;;;7.30;3.58;;;23.00;99.90;;;;;;5047407;28;20025;-65
2023/01/27 13:18:43;;;;;;;11.27;3.55;;;23.00;99.90;;;;;;5047493;28;20099;-67
2023/01/27 13:21:18;;;;;;;8.30;3.40;;;23.00;99.90;;;;;;5046915;28;20044;-64
2023/01/27 13:23:47;;;;;;;7.65;3.53;;;23.00;99.90;;;;;;5046103;28;20117;-63
2023/01/27 13:26:32;;;;;;;6.13;3.58;;;23.00;99.90;;;;;;5048812;28;20044;-64
2023/01/27 13:29:08;;;;;;;7.68;3.40;;;22.90;99.90;;;;;;5047665;28;20055;-65
2023/01/27 13:32:31;;;;;;;12.52;3.78;;;22.90;99.90;;;;;;5048364;28;20025;-65
2023/01/27 13:35:13;;;;;;;8.32;3.65;;;22.80;99.90;;;;;;4980344;28;20022;-63
2023/01/27 13:37:50;;;;;;;9.38;3.30;;;22.70;99.90;;;;;;4985731;28;20038;-66